sensor_id;sensor_type;location;lat;lon;timestamp;P1;durP1;ratioP1;P2;durP2;ratioP2
297;SDS011;133;49.626;9.680;2024-03-25T00:01:30;10.60;;;5.87;;
297;SDS011;133;49.626;9.680;2024-03-25T00:03:55;7.83;;;5.50;;
297;SDS011;133;49.626;9.680;2024-03-25T00:06:21;6.87;;;5.47;;
297;SDS011;133;49.626;9.680;2024-03-25T00:08:46;5.67;;;5.37;;
297;SDS011;133;49.626;9.680;2024-03-25T00:11:12;7.60;;;5.10;;
297;SDS011;133;49.626;9.680;2024-03-25T00:13:38;8.93;;;5.73;;
297;SDS011;133;49.626;9.680;2024-03-25T00:16:04;6.07;;;5.00;;
297;SDS011;133;49.626;9.680;2024-03-25T00:18:30;8.43;;;5.40;;
297;SDS011;133;49.626;9.680;2024-03-25T00:20:56;7.23;;;5.47;;
297;SDS011;133;49.626;9.680;2024-03-25T00:23:22;8.00;;;5.73;;
297;SDS011;133;49.626;9.680;2024-03-25T00:25:48;5.70;;;5.40;;
297;SDS011;133;49.626;9.680;2024-03-25T00:28:13;6.27;;;5.70;;
297;SDS011;133;49.626;9.680;2024-03-25T00:30:39;6.23;;;5.37;;
297;SDS011;133;49.626;9.680;2024-03-25T00:33:05;9.23;;;6.40;;
297;SDS011;133;49.626;9.680;2024-03-25T00:35:32;7.83;;;5.63;;
297;SDS011;133;49.626;9.680;2024-03-25T00:37:58;6.30;;;5.90;;
297;SDS011;133;49.626;9.680;2024-03-25T00:40:24;5.87;;;5.50;;
297;SDS011;133;49.626;9.680;2024-03-25T00:42:49;6.03;;;5.30;;
297;SDS011;133;49.626;9.680;2024-03-25T00:45:15;6.20;;;5.03;;
297;SDS011;133;49.626;9.680;2024-03-25T00:47:41;7.40;;;4.77;;
297;SDS011;133;49.626;9.680;2024-03-25T00:50:07;8.20;;;5.50;;
297;SDS011;133;49.626;9.680;2024-03-25T00:52:34;9.70;;;5.77;;
297;SDS011;133;49.626;9.680;2024-03-25T00:54:59;6.40;;;5.53;;
297;SDS011;133;49.626;9.680;2024-03-25T00:57:26;6.83;;;5.47;;
297;SDS011;133;49.626;9.680;2024-03-25T00:59:53;6.50;;;5.40;;
297;SDS011;133;49.626;9.680;2024-03-25T01:02:18;8.00;;;5.40;;
297;SDS011;133;49.626;9.680;2024-03-25T01:04:44;7.93;;;5.87;;
297;SDS011;133;49.626;9.680;2024-03-25T01:07:09;8.43;;;5.93;;
297;SDS011;133;49.626;9.680;2024-03-25T01:09:35;8.73;;;6.00;;
297;SDS011;133;49.626;9.680;2024-03-25T01:12:01;6.13;;;5.50;;
297;SDS011;133;49.626;9.680;2024-03-25T01:14:26;5.33;;;5.07;;
297;SDS011;133;49.626;9.680;2024-03-25T01:16:52;10.30;;;6.20;;
297;SDS011;133;49.626;9.680;2024-03-25T01:19:18;9.13;;;6.00;;
297;SDS011;133;49.626;9.680;2024-03-25T01:21:43;5.97;;;5.63;;
297;SDS011;133;49.626;9.680;2024-03-25T01:24:09;6.87;;;4.87;;
297;SDS011;133;49.626;9.680;2024-03-25T01:26:35;10.83;;;6.10;;
297;SDS011;133;49.626;9.680;2024-03-25T01:29:01;7.27;;;6.30;;
297;SDS011;133;49.626;9.680;2024-03-25T01:31:27;8.60;;;6.23;;
297;SDS011;133;49.626;9.680;2024-03-25T01:33:52;6.60;;;5.80;;
297;SDS011;133;49.626;9.680;2024-03-25T01:36:18;6.20;;;5.90;;
297;SDS011;133;49.626;9.680;2024-03-25T01:38:44;7.40;;;6.10;;
297;SDS011;133;49.626;9.680;2024-03-25T01:41:10;7.93;;;6.37;;
297;SDS011;133;49.626;9.680;2024-03-25T01:43:37;6.70;;;6.17;;
297;SDS011;133;49.626;9.680;2024-03-25T01:46:03;8.20;;;6.67;;
297;SDS011;133;49.626;9.680;2024-03-25T01:48:30;10.77;;;6.73;;
297;SDS011;133;49.626;9.680;2024-03-25T01:50:56;6.60;;;5.90;;
297;SDS011;133;49.626;9.680;2024-03-25T01:53:23;6.63;;;6.23;;
297;SDS011;133;49.626;9.680;2024-03-25T01:55:50;10.90;;;7.03;;
297;SDS011;133;49.626;9.680;2024-03-25T01:58:20;7.70;;;6.43;;
297;SDS011;133;49.626;9.680;2024-03-25T02:00:46;8.83;;;6.50;;
297;SDS011;133;49.626;9.680;2024-03-25T02:03:12;6.40;;;6.00;;
297;SDS011;133;49.626;9.680;2024-03-25T02:05:39;6.63;;;6.33;;
297;SDS011;133;49.626;9.680;2024-03-25T02:08:04;8.50;;;6.03;;
297;SDS011;133;49.626;9.680;2024-03-25T02:10:31;7.37;;;6.50;;
297;SDS011;133;49.626;9.680;2024-03-25T02:12:57;6.33;;;5.97;;
297;SDS011;133;49.626;9.680;2024-03-25T02:15:24;9.97;;;6.90;;
297;SDS011;133;49.626;9.680;2024-03-25T02:17:51;9.13;;;6.07;;
297;SDS011;133;49.626;9.680;2024-03-25T02:20:17;8.73;;;7.37;;
297;SDS011;133;49.626;9.680;2024-03-25T02:22:43;8.23;;;6.53;;
297;SDS011;133;49.626;9.680;2024-03-25T02:25:09;8.03;;;6.60;;
297;SDS011;133;49.626;9.680;2024-03-25T02:27:36;8.03;;;6.37;;
297;SDS011;133;49.626;9.680;2024-03-25T02:30:06;9.13;;;6.17;;
297;SDS011;133;49.626;9.680;2024-03-25T02:32:34;8.90;;;6.90;;
297;SDS011;133;49.626;9.680;2024-03-25T02:35:01;7.80;;;6.13;;
297;SDS011;133;49.626;9.680;2024-03-25T02:37:29;7.10;;;6.27;;
297;SDS011;133;49.626;9.680;2024-03-25T02:39:57;9.73;;;6.20;;
297;SDS011;133;49.626;9.680;2024-03-25T02:42:24;9.47;;;6.60;;
297;SDS011;133;49.626;9.680;2024-03-25T02:44:54;9.80;;;6.60;;
297;SDS011;133;49.626;9.680;2024-03-25T02:47:23;7.93;;;6.30;;
297;SDS011;133;49.626;9.680;2024-03-25T02:49:49;8.03;;;6.50;;
297;SDS011;133;49.626;9.680;2024-03-25T02:52:14;8.40;;;5.93;;
297;SDS011;133;49.626;9.680;2024-03-25T02:54:40;9.40;;;6.53;;
297;SDS011;133;49.626;9.680;2024-03-25T02:57:06;9.10;;;6.80;;
297;SDS011;133;49.626;9.680;2024-03-25T02:59:31;10.00;;;6.47;;
297;SDS011;133;49.626;9.680;2024-03-25T03:01:57;8.80;;;6.80;;
297;SDS011;133;49.626;9.680;2024-03-25T03:04:22;10.77;;;5.67;;
297;SDS011;133;49.626;9.680;2024-03-25T03:06:48;10.47;;;6.20;;
297;SDS011;133;49.626;9.680;2024-03-25T03:09:14;9.07;;;6.60;;
297;SDS011;133;49.626;9.680;2024-03-25T03:11:40;10.17;;;6.67;;
297;SDS011;133;49.626;9.680;2024-03-25T03:14:06;11.10;;;6.77;;
297;SDS011;133;49.626;9.680;2024-03-25T03:16:31;13.60;;;7.77;;
297;SDS011;133;49.626;9.680;2024-03-25T03:18:57;10.20;;;7.40;;
297;SDS011;133;49.626;9.680;2024-03-25T03:21:22;8.97;;;6.33;;
297;SDS011;133;49.626;9.680;2024-03-25T03:23:48;13.07;;;6.30;;
297;SDS011;133;49.626;9.680;2024-03-25T03:26:14;8.27;;;6.83;;
297;SDS011;133;49.626;9.680;2024-03-25T03:28:40;11.53;;;7.10;;
297;SDS011;133;49.626;9.680;2024-03-25T03:31:06;13.83;;;7.63;;
297;SDS011;133;49.626;9.680;2024-03-25T03:33:32;11.73;;;6.90;;
297;SDS011;133;49.626;9.680;2024-03-25T03:35:57;10.77;;;7.83;;
297;SDS011;133;49.626;9.680;2024-03-25T03:38:23;11.70;;;7.20;;
297;SDS011;133;49.626;9.680;2024-03-25T03:40:58;10.20;;;7.30;;
297;SDS011;133;49.626;9.680;2024-03-25T03:43:24;9.43;;;7.13;;
297;SDS011;133;49.626;9.680;2024-03-25T03:45:50;8.87;;;7.23;;
297;SDS011;133;49.626;9.680;2024-03-25T03:48:16;11.50;;;7.40;;
297;SDS011;133;49.626;9.680;2024-03-25T03:50:42;10.07;;;7.00;;
297;SDS011;133;49.626;9.680;2024-03-25T03:53:08;8.63;;;6.70;;
297;SDS011;133;49.626;9.680;2024-03-25T03:55:33;8.47;;;6.47;;
297;SDS011;133;49.626;9.680;2024-03-25T03:57:59;9.20;;;6.80;;
297;SDS011;133;49.626;9.680;2024-03-25T04:00:25;9.80;;;8.23;;
297;SDS011;133;49.626;9.680;2024-03-25T04:02:51;15.47;;;8.33;;
297;SDS011;133;49.626;9.680;2024-03-25T04:05:16;13.37;;;8.20;;
297;SDS011;133;49.626;9.680;2024-03-25T04:07:42;7.73;;;6.17;;
297;SDS011;133;49.626;9.680;2024-03-25T04:10:08;7.57;;;6.23;;
297;SDS011;133;49.626;9.680;2024-03-25T04:12:34;7.50;;;5.73;;
297;SDS011;133;49.626;9.680;2024-03-25T04:15:01;10.33;;;7.10;;
297;SDS011;133;49.626;9.680;2024-03-25T04:17:28;10.23;;;6.70;;
297;SDS011;133;49.626;9.680;2024-03-25T04:19:54;11.47;;;6.60;;
297;SDS011;133;49.626;9.680;2024-03-25T04:22:19;8.67;;;6.37;;
297;SDS011;133;49.626;9.680;2024-03-25T04:24:45;8.93;;;5.70;;
297;SDS011;133;49.626;9.680;2024-03-25T04:27:11;7.90;;;6.07;;
297;SDS011;133;49.626;9.680;2024-03-25T04:29:37;7.83;;;5.27;;
297;SDS011;133;49.626;9.680;2024-03-25T04:32:02;9.50;;;5.80;;
297;SDS011;133;49.626;9.680;2024-03-25T04:34:28;11.50;;;5.30;;
297;SDS011;133;49.626;9.680;2024-03-25T04:36:54;7.63;;;5.20;;
297;SDS011;133;49.626;9.680;2024-03-25T04:39:20;5.57;;;5.30;;
297;SDS011;133;49.626;9.680;2024-03-25T04:41:47;6.87;;;5.13;;
297;SDS011;133;49.626;9.680;2024-03-25T04:44:13;5.80;;;5.07;;
297;SDS011;133;49.626;9.680;2024-03-25T04:46:39;9.83;;;4.70;;
297;SDS011;133;49.626;9.680;2024-03-25T04:49:05;10.20;;;4.80;;
297;SDS011;133;49.626;9.680;2024-03-25T04:51:30;8.37;;;4.93;;
297;SDS011;133;49.626;9.680;2024-03-25T04:53:56;5.43;;;4.40;;
297;SDS011;133;49.626;9.680;2024-03-25T04:56:22;8.97;;;4.90;;
297;SDS011;133;49.626;9.680;2024-03-25T04:58:48;7.20;;;5.00;;
297;SDS011;133;49.626;9.680;2024-03-25T05:01:13;7.73;;;4.60;;
297;SDS011;133;49.626;9.680;2024-03-25T05:03:39;6.70;;;4.93;;
297;SDS011;133;49.626;9.680;2024-03-25T05:06:04;10.37;;;5.20;;
297;SDS011;133;49.626;9.680;2024-03-25T05:08:30;15.87;;;6.53;;
297;SDS011;133;49.626;9.680;2024-03-25T05:10:56;7.67;;;5.80;;
297;SDS011;133;49.626;9.680;2024-03-25T05:13:22;6.30;;;5.30;;
297;SDS011;133;49.626;9.680;2024-03-25T05:15:51;8.20;;;5.50;;
297;SDS011;133;49.626;9.680;2024-03-25T05:18:17;8.37;;;5.10;;
297;SDS011;133;49.626;9.680;2024-03-25T05:20:44;5.47;;;5.17;;
297;SDS011;133;49.626;9.680;2024-03-25T05:23:10;13.20;;;4.80;;
297;SDS011;133;49.626;9.680;2024-03-25T05:25:36;5.80;;;4.50;;
297;SDS011;133;49.626;9.680;2024-03-25T05:28:03;8.90;;;4.57;;
297;SDS011;133;49.626;9.680;2024-03-25T05:30:29;6.90;;;4.57;;
297;SDS011;133;49.626;9.680;2024-03-25T05:32:55;6.60;;;4.53;;
297;SDS011;133;49.626;9.680;2024-03-25T05:35:20;8.70;;;4.10;;
297;SDS011;133;49.626;9.680;2024-03-25T05:37:46;11.10;;;4.87;;
297;SDS011;133;49.626;9.680;2024-03-25T05:40:12;5.77;;;4.37;;
297;SDS011;133;49.626;9.680;2024-03-25T05:42:37;5.77;;;5.03;;
297;SDS011;133;49.626;9.680;2024-03-25T05:45:03;8.27;;;4.90;;
297;SDS011;133;49.626;9.680;2024-03-25T05:47:29;7.93;;;4.77;;
297;SDS011;133;49.626;9.680;2024-03-25T05:49:55;7.73;;;4.60;;
297;SDS011;133;49.626;9.680;2024-03-25T05:52:21;6.20;;;5.30;;
297;SDS011;133;49.626;9.680;2024-03-25T05:54:47;8.67;;;5.53;;
297;SDS011;133;49.626;9.680;2024-03-25T05:57:12;12.43;;;6.07;;
297;SDS011;133;49.626;9.680;2024-03-25T05:59:38;18.13;;;6.10;;
297;SDS011;133;49.626;9.680;2024-03-25T06:02:03;8.33;;;6.20;;
297;SDS011;133;49.626;9.680;2024-03-25T06:04:29;10.83;;;7.70;;
297;SDS011;133;49.626;9.680;2024-03-25T06:06:55;12.03;;;7.40;;
297;SDS011;133;49.626;9.680;2024-03-25T06:09:21;13.17;;;8.30;;
297;SDS011;133;49.626;9.680;2024-03-25T06:11:46;11.67;;;8.30;;
297;SDS011;133;49.626;9.680;2024-03-25T06:14:12;14.03;;;8.90;;
297;SDS011;133;49.626;9.680;2024-03-25T06:16:37;13.40;;;9.13;;
297;SDS011;133;49.626;9.680;2024-03-25T06:19:03;9.63;;;8.20;;
297;SDS011;133;49.626;9.680;2024-03-25T06:21:28;14.63;;;8.80;;
297;SDS011;133;49.626;9.680;2024-03-25T06:23:54;11.03;;;8.33;;
297;SDS011;133;49.626;9.680;2024-03-25T06:26:20;11.53;;;7.70;;
297;SDS011;133;49.626;9.680;2024-03-25T06:28:47;10.47;;;8.20;;
297;SDS011;133;49.626;9.680;2024-03-25T06:31:12;9.40;;;7.80;;
297;SDS011;133;49.626;9.680;2024-03-25T06:33:56;12.17;;;7.80;;
297;SDS011;133;49.626;9.680;2024-03-25T06:36:42;13.60;;;8.97;;
297;SDS011;133;49.626;9.680;2024-03-25T06:39:09;13.43;;;8.20;;
297;SDS011;133;49.626;9.680;2024-03-25T06:41:34;11.43;;;8.20;;
297;SDS011;133;49.626;9.680;2024-03-25T06:44:00;10.87;;;7.60;;
297;SDS011;133;49.626;9.680;2024-03-25T06:46:25;9.30;;;8.07;;
297;SDS011;133;49.626;9.680;2024-03-25T06:48:51;11.37;;;8.60;;
297;SDS011;133;49.626;9.680;2024-03-25T06:51:17;15.87;;;8.37;;
297;SDS011;133;49.626;9.680;2024-03-25T06:53:43;11.77;;;8.30;;
297;SDS011;133;49.626;9.680;2024-03-25T06:56:09;11.30;;;8.30;;
297;SDS011;133;49.626;9.680;2024-03-25T06:58:34;10.97;;;7.60;;
297;SDS011;133;49.626;9.680;2024-03-25T07:01:04;9.17;;;7.60;;
297;SDS011;133;49.626;9.680;2024-03-25T07:03:32;14.37;;;7.63;;
297;SDS011;133;49.626;9.680;2024-03-25T07:05:58;17.17;;;8.23;;
297;SDS011;133;49.626;9.680;2024-03-25T07:08:25;11.10;;;7.30;;
297;SDS011;133;49.626;9.680;2024-03-25T07:10:55;10.10;;;6.50;;
297;SDS011;133;49.626;9.680;2024-03-25T07:13:21;9.43;;;7.40;;
297;SDS011;133;49.626;9.680;2024-03-25T07:15:47;14.60;;;8.23;;
297;SDS011;133;49.626;9.680;2024-03-25T07:18:13;9.73;;;6.67;;
297;SDS011;133;49.626;9.680;2024-03-25T07:20:42;13.60;;;6.50;;
297;SDS011;133;49.626;9.680;2024-03-25T07:23:08;11.63;;;6.23;;
297;SDS011;133;49.626;9.680;2024-03-25T07:25:34;10.27;;;7.10;;
297;SDS011;133;49.626;9.680;2024-03-25T07:28:00;10.63;;;7.03;;
297;SDS011;133;49.626;9.680;2024-03-25T07:30:27;10.73;;;7.50;;
297;SDS011;133;49.626;9.680;2024-03-25T07:32:57;12.13;;;6.60;;
297;SDS011;133;49.626;9.680;2024-03-25T07:35:23;9.40;;;6.70;;
297;SDS011;133;49.626;9.680;2024-03-25T07:37:49;9.97;;;6.20;;
297;SDS011;133;49.626;9.680;2024-03-25T07:40:18;8.80;;;6.50;;
297;SDS011;133;49.626;9.680;2024-03-25T07:42:44;8.60;;;6.10;;
297;SDS011;133;49.626;9.680;2024-03-25T07:45:09;9.20;;;6.23;;
297;SDS011;133;49.626;9.680;2024-03-25T07:47:35;9.10;;;5.70;;
297;SDS011;133;49.626;9.680;2024-03-25T07:50:01;6.73;;;5.50;;
297;SDS011;133;49.626;9.680;2024-03-25T07:52:27;8.57;;;5.03;;
297;SDS011;133;49.626;9.680;2024-03-25T07:54:54;12.53;;;6.03;;
297;SDS011;133;49.626;9.680;2024-03-25T07:57:20;8.90;;;5.37;;
297;SDS011;133;49.626;9.680;2024-03-25T07:59:46;9.63;;;6.63;;
297;SDS011;133;49.626;9.680;2024-03-25T08:02:12;5.87;;;4.83;;
297;SDS011;133;49.626;9.680;2024-03-25T08:04:38;9.53;;;5.73;;
297;SDS011;133;49.626;9.680;2024-03-25T08:07:03;6.10;;;5.33;;
297;SDS011;133;49.626;9.680;2024-03-25T08:09:29;7.87;;;5.13;;
297;SDS011;133;49.626;9.680;2024-03-25T08:11:55;9.13;;;5.80;;
297;SDS011;133;49.626;9.680;2024-03-25T08:14:20;7.40;;;4.90;;
297;SDS011;133;49.626;9.680;2024-03-25T08:16:47;6.70;;;4.90;;
297;SDS011;133;49.626;9.680;2024-03-25T08:19:12;10.23;;;5.80;;
297;SDS011;133;49.626;9.680;2024-03-25T08:21:38;8.80;;;5.50;;
297;SDS011;133;49.626;9.680;2024-03-25T08:24:04;10.10;;;5.07;;
297;SDS011;133;49.626;9.680;2024-03-25T08:26:30;6.77;;;4.63;;
297;SDS011;133;49.626;9.680;2024-03-25T08:28:55;5.83;;;4.63;;
297;SDS011;133;49.626;9.680;2024-03-25T08:31:21;14.47;;;4.83;;
297;SDS011;133;49.626;9.680;2024-03-25T08:33:46;7.90;;;4.70;;
297;SDS011;133;49.626;9.680;2024-03-25T08:36:12;6.10;;;3.93;;
297;SDS011;133;49.626;9.680;2024-03-25T08:38:38;6.10;;;4.00;;
297;SDS011;133;49.626;9.680;2024-03-25T08:41:03;10.83;;;4.37;;
297;SDS011;133;49.626;9.680;2024-03-25T08:43:29;7.73;;;4.20;;
297;SDS011;133;49.626;9.680;2024-03-25T08:45:55;5.07;;;3.80;;
297;SDS011;133;49.626;9.680;2024-03-25T08:48:20;6.87;;;4.10;;
297;SDS011;133;49.626;9.680;2024-03-25T08:50:46;8.20;;;4.03;;
297;SDS011;133;49.626;9.680;2024-03-25T08:53:12;6.67;;;3.90;;
297;SDS011;133;49.626;9.680;2024-03-25T08:55:37;4.80;;;3.57;;
297;SDS011;133;49.626;9.680;2024-03-25T08:58:04;5.60;;;3.23;;
297;SDS011;133;49.626;9.680;2024-03-25T09:00:30;4.23;;;3.37;;
297;SDS011;133;49.626;9.680;2024-03-25T09:02:55;6.90;;;3.60;;
297;SDS011;133;49.626;9.680;2024-03-25T09:05:21;6.40;;;3.40;;
297;SDS011;133;49.626;9.680;2024-03-25T09:07:51;4.20;;;3.00;;
297;SDS011;133;49.626;9.680;2024-03-25T09:10:20;6.17;;;3.20;;
297;SDS011;133;49.626;9.680;2024-03-25T09:13:04;7.43;;;3.30;;
297;SDS011;133;49.626;9.680;2024-03-25T09:15:30;5.67;;;3.40;;
297;SDS011;133;49.626;9.680;2024-03-25T09:17:55;6.83;;;3.70;;
297;SDS011;133;49.626;9.680;2024-03-25T09:20:21;6.83;;;3.37;;
297;SDS011;133;49.626;9.680;2024-03-25T09:22:47;6.53;;;3.53;;
297;SDS011;133;49.626;9.680;2024-03-25T09:25:16;3.30;;;3.00;;
297;SDS011;133;49.626;9.680;2024-03-25T09:27:48;4.13;;;2.83;;
297;SDS011;133;49.626;9.680;2024-03-25T09:30:14;4.30;;;2.70;;
297;SDS011;133;49.626;9.680;2024-03-25T09:32:41;5.97;;;3.10;;
297;SDS011;133;49.626;9.680;2024-03-25T09:35:08;4.10;;;2.93;;
297;SDS011;133;49.626;9.680;2024-03-25T09:37:34;6.27;;;2.90;;
297;SDS011;133;49.626;9.680;2024-03-25T09:40:00;6.50;;;3.07;;
297;SDS011;133;49.626;9.680;2024-03-25T09:42:26;7.27;;;3.13;;
297;SDS011;133;49.626;9.680;2024-03-25T09:45:08;5.47;;;2.83;;
297;SDS011;133;49.626;9.680;2024-03-25T09:47:36;6.80;;;3.30;;
297;SDS011;133;49.626;9.680;2024-03-25T09:50:04;4.37;;;3.07;;
297;SDS011;133;49.626;9.680;2024-03-25T09:52:33;5.13;;;3.80;;
297;SDS011;133;49.626;9.680;2024-03-25T09:54:59;4.70;;;2.90;;
297;SDS011;133;49.626;9.680;2024-03-25T09:57:24;11.17;;;3.63;;
297;SDS011;133;49.626;9.680;2024-03-25T09:59:51;4.60;;;3.00;;
297;SDS011;133;49.626;9.680;2024-03-25T10:02:16;4.00;;;2.70;;
297;SDS011;133;49.626;9.680;2024-03-25T10:04:44;4.60;;;3.70;;
297;SDS011;133;49.626;9.680;2024-03-25T10:07:16;4.03;;;2.60;;
297;SDS011;133;49.626;9.680;2024-03-25T10:09:47;5.83;;;3.07;;
297;SDS011;133;49.626;9.680;2024-03-25T10:12:13;3.33;;;3.13;;
297;SDS011;133;49.626;9.680;2024-03-25T10:14:41;4.80;;;3.10;;
297;SDS011;133;49.626;9.680;2024-03-25T10:17:07;3.87;;;2.70;;
297;SDS011;133;49.626;9.680;2024-03-25T10:19:34;4.30;;;3.20;;
297;SDS011;133;49.626;9.680;2024-03-25T10:22:03;5.63;;;3.10;;
297;SDS011;133;49.626;9.680;2024-03-25T10:27:16;5.60;;;2.80;;
297;SDS011;133;49.626;9.680;2024-03-25T10:29:45;2.67;;;2.47;;
297;SDS011;133;49.626;9.680;2024-03-25T10:32:14;2.83;;;2.47;;
297;SDS011;133;49.626;9.680;2024-03-25T10:34:40;3.10;;;2.70;;
297;SDS011;133;49.626;9.680;2024-03-25T10:37:08;6.30;;;2.67;;
297;SDS011;133;49.626;9.680;2024-03-25T10:39:36;3.57;;;2.50;;
297;SDS011;133;49.626;9.680;2024-03-25T10:42:04;7.13;;;3.00;;
297;SDS011;133;49.626;9.680;2024-03-25T10:44:31;4.57;;;3.10;;
297;SDS011;133;49.626;9.680;2024-03-25T10:47:01;3.23;;;2.40;;
297;SDS011;133;49.626;9.680;2024-03-25T10:49:34;4.60;;;2.97;;
297;SDS011;133;49.626;9.680;2024-03-25T10:52:13;7.03;;;3.00;;
297;SDS011;133;49.626;9.680;2024-03-25T10:54:41;5.03;;;2.80;;
297;SDS011;133;49.626;9.680;2024-03-25T10:57:08;3.00;;;2.87;;
297;SDS011;133;49.626;9.680;2024-03-25T10:59:35;3.47;;;2.57;;
297;SDS011;133;49.626;9.680;2024-03-25T11:02:06;4.03;;;2.83;;
297;SDS011;133;49.626;9.680;2024-03-25T11:04:34;3.17;;;2.50;;
297;SDS011;133;49.626;9.680;2024-03-25T11:07:10;3.87;;;2.90;;
297;SDS011;133;49.626;9.680;2024-03-25T11:09:37;8.03;;;2.90;;
297;SDS011;133;49.626;9.680;2024-03-25T11:12:03;3.70;;;2.50;;
297;SDS011;133;49.626;9.680;2024-03-25T11:14:29;2.80;;;2.63;;
297;SDS011;133;49.626;9.680;2024-03-25T11:16:57;6.13;;;2.53;;
297;SDS011;133;49.626;9.680;2024-03-25T11:19:26;5.00;;;2.33;;
297;SDS011;133;49.626;9.680;2024-03-25T11:21:53;2.77;;;2.57;;
297;SDS011;133;49.626;9.680;2024-03-25T11:24:29;3.17;;;2.20;;
297;SDS011;133;49.626;9.680;2024-03-25T11:26:55;3.67;;;2.70;;
297;SDS011;133;49.626;9.680;2024-03-25T11:29:21;4.27;;;2.80;;
297;SDS011;133;49.626;9.680;2024-03-25T11:31:48;3.40;;;2.77;;
297;SDS011;133;49.626;9.680;2024-03-25T11:34:14;4.40;;;2.80;;
297;SDS011;133;49.626;9.680;2024-03-25T11:36:40;3.00;;;2.37;;
297;SDS011;133;49.626;9.680;2024-03-25T11:39:06;2.63;;;2.40;;
297;SDS011;133;49.626;9.680;2024-03-25T11:41:41;5.37;;;2.60;;
297;SDS011;133;49.626;9.680;2024-03-25T11:44:08;3.00;;;2.70;;
297;SDS011;133;49.626;9.680;2024-03-25T11:46:36;2.90;;;2.53;;
297;SDS011;133;49.626;9.680;2024-03-25T11:49:02;4.03;;;2.57;;
297;SDS011;133;49.626;9.680;2024-03-25T11:51:33;2.70;;;2.50;;
297;SDS011;133;49.626;9.680;2024-03-25T11:53:58;6.80;;;2.93;;
297;SDS011;133;49.626;9.680;2024-03-25T11:56:25;3.80;;;3.00;;
297;SDS011;133;49.626;9.680;2024-03-25T11:58:51;5.70;;;2.70;;
297;SDS011;133;49.626;9.680;2024-03-25T12:01:17;3.83;;;2.50;;
297;SDS011;133;49.626;9.680;2024-03-25T12:03:43;4.50;;;2.63;;
297;SDS011;133;49.626;9.680;2024-03-25T12:06:09;4.37;;;2.50;;
297;SDS011;133;49.626;9.680;2024-03-25T12:08:34;3.70;;;2.90;;
297;SDS011;133;49.626;9.680;2024-03-25T12:11:10;5.20;;;2.70;;
297;SDS011;133;49.626;9.680;2024-03-25T12:13:44;3.20;;;2.60;;
297;SDS011;133;49.626;9.680;2024-03-25T12:16:10;3.87;;;2.50;;
297;SDS011;133;49.626;9.680;2024-03-25T12:18:39;2.80;;;2.60;;
297;SDS011;133;49.626;9.680;2024-03-25T12:21:06;7.33;;;3.27;;
297;SDS011;133;49.626;9.680;2024-03-25T12:23:32;7.83;;;3.10;;
297;SDS011;133;49.626;9.680;2024-03-25T12:26:01;5.53;;;3.27;;
297;SDS011;133;49.626;9.680;2024-03-25T12:28:28;3.17;;;2.77;;
297;SDS011;133;49.626;9.680;2024-03-25T12:30:55;6.03;;;2.90;;
297;SDS011;133;49.626;9.680;2024-03-25T12:33:24;3.47;;;2.70;;
297;SDS011;133;49.626;9.680;2024-03-25T12:35:51;3.70;;;2.87;;
297;SDS011;133;49.626;9.680;2024-03-25T12:38:27;4.40;;;2.57;;
297;SDS011;133;49.626;9.680;2024-03-25T12:41:08;4.13;;;2.60;;
297;SDS011;133;49.626;9.680;2024-03-25T12:43:35;3.20;;;2.67;;
297;SDS011;133;49.626;9.680;2024-03-25T12:46:06;3.60;;;2.77;;
297;SDS011;133;49.626;9.680;2024-03-25T12:48:33;3.47;;;2.40;;
297;SDS011;133;49.626;9.680;2024-03-25T12:50:59;4.67;;;2.40;;
297;SDS011;133;49.626;9.680;2024-03-25T12:53:25;2.93;;;2.73;;
297;SDS011;133;49.626;9.680;2024-03-25T12:55:52;2.50;;;2.30;;
297;SDS011;133;49.626;9.680;2024-03-25T12:58:18;4.10;;;2.50;;
297;SDS011;133;49.626;9.680;2024-03-25T13:00:43;3.50;;;2.40;;
297;SDS011;133;49.626;9.680;2024-03-25T13:03:09;2.73;;;2.30;;
297;SDS011;133;49.626;9.680;2024-03-25T13:05:36;2.60;;;2.40;;
297;SDS011;133;49.626;9.680;2024-03-25T13:08:01;2.83;;;2.50;;
297;SDS011;133;49.626;9.680;2024-03-25T13:10:28;3.00;;;2.80;;
297;SDS011;133;49.626;9.680;2024-03-25T13:12:54;2.60;;;2.40;;
297;SDS011;133;49.626;9.680;2024-03-25T13:15:20;4.50;;;3.00;;
297;SDS011;133;49.626;9.680;2024-03-25T13:17:46;4.60;;;2.77;;
297;SDS011;133;49.626;9.680;2024-03-25T13:20:13;3.87;;;2.83;;
297;SDS011;133;49.626;9.680;2024-03-25T13:22:38;2.93;;;2.73;;
297;SDS011;133;49.626;9.680;2024-03-25T13:25:05;3.70;;;2.70;;
297;SDS011;133;49.626;9.680;2024-03-25T13:27:31;4.23;;;2.30;;
297;SDS011;133;49.626;9.680;2024-03-25T13:29:56;2.83;;;2.60;;
297;SDS011;133;49.626;9.680;2024-03-25T13:32:22;3.73;;;2.50;;
297;SDS011;133;49.626;9.680;2024-03-25T13:34:48;4.40;;;2.50;;
297;SDS011;133;49.626;9.680;2024-03-25T13:37:14;3.17;;;2.30;;
297;SDS011;133;49.626;9.680;2024-03-25T13:39:40;2.60;;;2.40;;
297;SDS011;133;49.626;9.680;2024-03-25T13:42:06;3.93;;;2.67;;
297;SDS011;133;49.626;9.680;2024-03-25T13:44:32;2.50;;;2.30;;
297;SDS011;133;49.626;9.680;2024-03-25T13:46:57;5.83;;;2.60;;
297;SDS011;133;49.626;9.680;2024-03-25T13:49:23;2.90;;;2.40;;
297;SDS011;133;49.626;9.680;2024-03-25T13:51:58;2.80;;;2.47;;
297;SDS011;133;49.626;9.680;2024-03-25T13:54:27;2.97;;;2.47;;
297;SDS011;133;49.626;9.680;2024-03-25T13:56:52;3.37;;;2.93;;
297;SDS011;133;49.626;9.680;2024-03-25T13:59:18;3.10;;;2.63;;
297;SDS011;133;49.626;9.680;2024-03-25T14:01:44;4.27;;;2.53;;
297;SDS011;133;49.626;9.680;2024-03-25T14:04:10;2.70;;;2.50;;
297;SDS011;133;49.626;9.680;2024-03-25T14:06:35;2.87;;;2.70;;
297;SDS011;133;49.626;9.680;2024-03-25T14:09:02;3.70;;;2.60;;
297;SDS011;133;49.626;9.680;2024-03-25T14:11:31;3.20;;;2.40;;
297;SDS011;133;49.626;9.680;2024-03-25T14:13:56;3.77;;;2.50;;
297;SDS011;133;49.626;9.680;2024-03-25T14:16:22;4.13;;;2.80;;
297;SDS011;133;49.626;9.680;2024-03-25T14:18:47;3.50;;;2.40;;
297;SDS011;133;49.626;9.680;2024-03-25T14:21:13;2.60;;;2.43;;
297;SDS011;133;49.626;9.680;2024-03-25T14:23:39;4.67;;;2.50;;
297;SDS011;133;49.626;9.680;2024-03-25T14:26:08;2.93;;;2.43;;
297;SDS011;133;49.626;9.680;2024-03-25T14:28:34;2.83;;;2.70;;
297;SDS011;133;49.626;9.680;2024-03-25T14:31:00;3.20;;;2.57;;
297;SDS011;133;49.626;9.680;2024-03-25T14:33:26;3.63;;;2.60;;
297;SDS011;133;49.626;9.680;2024-03-25T14:35:51;3.17;;;2.77;;
297;SDS011;133;49.626;9.680;2024-03-25T14:38:17;2.70;;;2.40;;
297;SDS011;133;49.626;9.680;2024-03-25T14:40:42;5.80;;;3.03;;
297;SDS011;133;49.626;9.680;2024-03-25T14:43:08;2.77;;;2.60;;
297;SDS011;133;49.626;9.680;2024-03-25T14:45:34;2.67;;;2.47;;
297;SDS011;133;49.626;9.680;2024-03-25T14:47:59;2.90;;;2.70;;
297;SDS011;133;49.626;9.680;2024-03-25T14:50:25;3.03;;;2.83;;
297;SDS011;133;49.626;9.680;2024-03-25T14:52:50;2.77;;;2.60;;
297;SDS011;133;49.626;9.680;2024-03-25T14:55:16;4.37;;;2.60;;
297;SDS011;133;49.626;9.680;2024-03-25T14:57:42;2.53;;;2.30;;
297;SDS011;133;49.626;9.680;2024-03-25T15:00:07;2.73;;;2.20;;
297;SDS011;133;49.626;9.680;2024-03-25T15:02:33;2.87;;;2.57;;
297;SDS011;133;49.626;9.680;2024-03-25T15:04:59;4.50;;;2.97;;
297;SDS011;133;49.626;9.680;2024-03-25T15:07:25;3.27;;;2.47;;
297;SDS011;133;49.626;9.680;2024-03-25T15:09:51;3.23;;;2.47;;
297;SDS011;133;49.626;9.680;2024-03-25T15:12:17;4.33;;;2.40;;
297;SDS011;133;49.626;9.680;2024-03-25T15:14:43;3.50;;;2.50;;
297;SDS011;133;49.626;9.680;2024-03-25T15:17:08;3.00;;;2.60;;
297;SDS011;133;49.626;9.680;2024-03-25T15:19:34;2.80;;;2.60;;
297;SDS011;133;49.626;9.680;2024-03-25T15:22:00;2.60;;;2.40;;
297;SDS011;133;49.626;9.680;2024-03-25T15:24:26;2.70;;;2.23;;
297;SDS011;133;49.626;9.680;2024-03-25T15:26:51;5.17;;;2.60;;
297;SDS011;133;49.626;9.680;2024-03-25T15:29:17;4.43;;;2.73;;
297;SDS011;133;49.626;9.680;2024-03-25T15:31:43;3.17;;;2.87;;
297;SDS011;133;49.626;9.680;2024-03-25T15:34:08;5.03;;;2.90;;
297;SDS011;133;49.626;9.680;2024-03-25T15:36:34;3.70;;;3.10;;
297;SDS011;133;49.626;9.680;2024-03-25T15:38:59;4.07;;;3.10;;
297;SDS011;133;49.626;9.680;2024-03-25T15:41:25;3.07;;;2.90;;